Time;durP1;ratioP1;P1;durP2;ratioP2;P2;SDS_P1;SDS_P2;PMS_P1;PMS_P2;Temp;Humidity;BMP_temperature;BMP_pressure;BME280_temperature;BME280_humidity;BME280_pressure;Samples;Min_cycle;Max_cycle;Signal;HPM_P1;HPM_P2
2023/12/24 00:02:00;;;;;;;24.55;5.10;;;11.10;99.90;;;;;;5115389;28;20063;-70
2023/12/24 00:04:25;;;;;;;20.23;4.85;;;11.10;99.90;;;;;;5115366;28;20115;-71
2023/12/24 00:06:51;;;;;;;21.23;4.97;;;11.00;99.90;;;;;;5115092;28;20102;-71
2023/12/24 00:09:16;;;;;;;30.60;5.63;;;11.00;99.90;;;;;;5113736;28;20070;-71
2023/12/24 00:11:42;;;;;;;25.10;4.82;;;11.00;99.90;;;;;;5115047;28;20040;-72
2023/12/24 00:14:08;;;;;;;24.67;4.95;;;11.00;99.90;;;;;;5096558;28;20019;-72
2023/12/24 00:16:33;;;;;;;24.52;5.03;;;11.00;99.90;;;;;;5115086;28;20027;-72
2023/12/24 00:18:59;;;;;;;23.58;4.75;;;10.90;99.90;;;;;;5115101;28;20051;-71
2023/12/24 00:21:24;;;;;;;20.48;4.32;;;10.90;99.90;;;;;;5114365;28;20024;-73
2023/12/24 00:23:50;;;;;;;27.80;5.25;;;10.90;99.90;;;;;;5111276;28;20027;-72
2023/12/24 00:26:16;;;;;;;21.48;4.47;;;10.90;99.90;;;;;;5103968;28;20032;-73
2023/12/24 00:28:42;;;;;;;29.58;5.72;;;10.80;99.90;;;;;;5114735;28;20020;-72
2023/12/24 00:31:07;;;;;;;25.13;5.03;;;10.80;99.90;;;;;;5114297;28;20429;-72
2023/12/24 00:33:33;;;;;;;27.65;5.60;;;10.80;99.90;;;;;;5114360;28;20372;-72
2023/12/24 00:35:58;;;;;;;27.73;5.15;;;10.70;99.90;;;;;;5113592;28;20023;-72
2023/12/24 00:38:24;;;;;;;23.95;4.93;;;10.70;99.90;;;;;;5114771;28;20110;-72
2023/12/24 00:40:50;;;;;;;27.98;5.80;;;10.60;99.90;;;;;;5109553;28;20027;-72
2023/12/24 00:43:15;;;;;;;26.55;6.15;;;10.60;99.90;;;;;;5114375;28;20193;-71
2023/12/24 00:45:41;;;;;;;31.02;5.28;;;10.60;99.90;;;;;;5114443;28;20449;-72
2023/12/24 00:48:07;;;;;;;29.15;5.40;;;10.60;99.90;;;;;;5114248;28;20031;-72
2023/12/24 00:50:33;;;;;;;26.67;5.00;;;10.60;99.90;;;;;;5113732;28;20063;-72
2023/12/24 00:52:58;;;;;;;30.27;5.47;;;10.60;99.90;;;;;;5114302;28;20059;-72
2023/12/24 00:55:24;;;;;;;24.52;5.10;;;10.60;99.90;;;;;;5112843;28;20032;-72
2023/12/24 00:57:49;;;;;;;23.73;5.03;;;10.60;99.90;;;;;;5114292;28;20035;-72
2023/12/24 01:00:15;;;;;;;28.55;4.63;;;10.50;99.90;;;;;;5111531;28;20467;-71
2023/12/24 01:02:40;;;;;;;24.27;4.85;;;10.50;99.90;;;;;;5113704;28;20544;-72
2023/12/24 01:05:07;;;;;;;26.38;6.03;;;10.50;99.90;;;;;;5113069;28;20481;-73
2023/12/24 01:07:33;;;;;;;27.17;4.82;;;10.40;99.90;;;;;;5109971;28;20032;-71
2023/12/24 01:09:58;;;;;;;32.38;7.18;;;10.40;99.90;;;;;;5113554;28;20422;-72
2023/12/24 01:12:24;;;;;;;25.65;4.80;;;10.40;99.90;;;;;;5104023;28;20024;-71
2023/12/24 01:14:49;;;;;;;29.05;5.85;;;10.40;99.90;;;;;;5107240;28;20086;-72
2023/12/24 01:17:15;;;;;;;29.13;5.68;;;10.40;99.90;;;;;;5113285;28;20480;-72
2023/12/24 01:19:40;;;;;;;26.95;5.65;;;10.40;99.90;;;;;;5113303;28;20023;-73
2023/12/24 01:22:06;;;;;;;29.95;6.28;;;10.30;99.90;;;;;;5113624;28;20034;-72
2023/12/24 01:24:32;;;;;;;28.98;6.15;;;10.30;99.90;;;;;;5113409;28;20068;-72
2023/12/24 01:26:57;;;;;;;30.30;6.18;;;10.30;99.90;;;;;;5113482;28;20065;-72
2023/12/24 01:29:23;;;;;;;28.38;6.63;;;10.20;99.90;;;;;;5111663;28;20074;-72
2023/12/24 01:31:48;;;;;;;29.88;6.95;;;10.20;99.90;;;;;;5113207;28;20081;-72
2023/12/24 01:34:14;;;;;;;30.17;7.95;;;10.10;99.90;;;;;;5107201;28;20016;-72
2023/12/24 01:36:40;;;;;;;31.15;7.43;;;10.10;99.90;;;;;;5102980;28;20024;-72
2023/12/24 01:39:10;;;;;;;27.83;6.32;;;10.10;99.90;;;;;;5112452;28;20343;-72
2023/12/24 01:41:35;;;;;;;32.28;6.57;;;10.10;99.90;;;;;;5111597;28;20024;-72
2023/12/24 01:44:01;;;;;;;26.05;6.97;;;10.10;99.90;;;;;;5112278;28;20122;-72
2023/12/24 01:46:27;;;;;;;32.22;5.70;;;10.10;99.90;;;;;;5112768;28;20027;-72
2023/12/24 01:48:54;;;;;;;30.95;4.88;;;10.10;99.90;;;;;;5107010;28;20024;-72
2023/12/24 01:51:21;;;;;;;28.52;5.10;;;10.10;99.90;;;;;;5110840;28;20078;-72
2023/12/24 01:53:50;;;;;;;29.73;6.03;;;10.10;99.90;;;;;;5112944;28;20114;-72
2023/12/24 01:56:17;;;;;;;30.88;5.60;;;10.10;99.90;;;;;;5112820;28;20024;-72
2023/12/24 01:58:47;;;;;;;26.13;6.55;;;10.10;99.90;;;;;;5112980;28;20031;-72
2023/12/24 02:01:12;;;;;;;34.35;7.65;;;10.10;99.90;;;;;;5112546;28;20047;-73
2023/12/24 02:03:38;;;;;;;34.03;6.85;;;10.10;99.90;;;;;;5113162;28;20103;-72
2023/12/24 02:06:05;;;;;;;26.77;6.53;;;10.10;99.90;;;;;;5111576;28;20318;-72
2023/12/24 02:08:31;;;;;;;33.72;6.32;;;10.10;99.90;;;;;;5112934;28;20027;-72
2023/12/24 02:10:58;;;;;;;34.72;6.45;;;10.10;99.90;;;;;;5112870;28;20087;-72
2023/12/24 02:13:23;;;;;;;28.80;6.10;;;10.10;99.90;;;;;;5112436;28;20031;-72
2023/12/24 02:15:56;;;;;;;24.67;6.13;;;10.10;99.90;;;;;;5112930;28;20024;-72
2023/12/24 02:18:21;;;;;;;33.33;6.72;;;10.20;99.90;;;;;;5112703;28;20476;-72
2023/12/24 02:20:47;;;;;;;31.67;6.65;;;10.20;99.90;;;;;;5112794;28;20071;-73
2023/12/24 02:23:16;;;;;;;27.60;6.07;;;10.20;99.90;;;;;;5110567;28;20089;-73
2023/12/24 02:25:43;;;;;;;36.75;6.57;;;10.20;99.90;;;;;;5112537;28;20031;-72
2023/12/24 02:28:13;;;;;;;29.95;5.97;;;10.20;99.90;;;;;;5112783;28;20161;-72
2023/12/24 02:30:43;;;;;;;31.38;6.25;;;10.20;99.90;;;;;;5111968;28;20493;-72
2023/12/24 02:33:12;;;;;;;21.13;5.18;;;10.20;99.90;;;;;;5112429;28;20121;-72
2023/12/24 02:35:39;;;;;;;33.05;5.97;;;10.10;99.90;;;;;;5098379;28;20069;-72
2023/12/24 02:38:04;;;;;;;26.85;6.07;;;10.20;99.90;;;;;;5112507;28;20047;-72
2023/12/24 02:40:30;;;;;;;25.25;6.20;;;10.20;99.90;;;;;;5094300;28;20074;-72
2023/12/24 02:42:56;;;;;;;32.53;8.65;;;10.10;99.90;;;;;;5112280;28;20031;-72
2023/12/24 02:45:21;;;;;;;27.85;8.38;;;10.20;99.90;;;;;;5111962;28;20028;-72
2023/12/24 02:47:47;;;;;;;26.75;8.48;;;10.20;99.90;;;;;;5112256;28;20042;-72
2023/12/24 02:50:13;;;;;;;26.73;7.95;;;10.20;99.90;;;;;;5112431;28;20035;-72
2023/12/24 02:52:38;;;;;;;36.58;10.13;;;10.20;99.90;;;;;;5099680;28;20024;-72
2023/12/24 02:55:04;;;;;;;31.52;9.80;;;10.20;99.90;;;;;;5124816;27;20081;-72
2023/12/24 02:57:29;;;;;;;28.23;8.82;;;10.20;99.90;;;;;;5116439;28;20364;-72
2023/12/24 02:59:55;;;;;;;27.90;9.45;;;10.20;99.90;;;;;;5115864;28;20043;-72
2023/12/24 03:02:21;;;;;;;31.63;8.68;;;10.20;99.90;;;;;;5116015;28;20028;-72
2023/12/24 03:04:46;;;;;;;27.38;8.93;;;10.20;99.90;;;;;;5115662;28;20063;-72
2023/12/24 03:07:13;;;;;;;28.30;9.55;;;10.20;99.90;;;;;;5115729;28;20775;-72
2023/12/24 03:09:39;;;;;;;30.90;9.68;;;10.20;99.90;;;;;;5097529;28;20020;-72
2023/12/24 03:12:05;;;;;;;27.08;9.98;;;10.30;99.90;;;;;;5116040;28;20358;-72
2023/12/24 03:14:30;;;;;;;32.00;9.45;;;10.30;99.90;;;;;;5115424;28;20042;-72
2023/12/24 03:16:56;;;;;;;34.85;9.18;;;10.30;99.90;;;;;;5115426;28;20020;-72
2023/12/24 03:19:22;;;;;;;36.50;10.88;;;10.30;99.90;;;;;;5115750;28;20085;-72
2023/12/24 03:21:47;;;;;;;35.47;9.98;;;10.30;99.90;;;;;;5115505;28;20034;-72
2023/12/24 03:24:13;;;;;;;30.58;11.07;;;10.40;99.90;;;;;;5115730;28;20106;-72
2023/12/24 03:26:38;;;;;;;35.85;10.68;;;10.30;99.90;;;;;;5114391;28;20460;-72
2023/12/24 03:29:05;;;;;;;41.17;11.35;;;10.30;99.90;;;;;;5115544;28;20027;-72
2023/12/24 03:31:31;;;;;;;36.85;11.10;;;10.30;99.90;;;;;;5114183;28;20122;-72
2023/12/24 03:33:56;;;;;;;37.83;11.10;;;10.30;99.90;;;;;;5114945;28;20082;-72
2023/12/24 03:36:24;;;;;;;33.72;10.48;;;10.30;99.90;;;;;;5113163;28;20476;-72
2023/12/24 03:38:49;;;;;;;36.30;10.10;;;10.30;99.90;;;;;;5113202;28;20036;-72
2023/12/24 03:41:15;;;;;;;31.23;9.13;;;10.40;99.90;;;;;;5114737;28;20385;-72
2023/12/24 03:43:41;;;;;;;34.53;8.77;;;10.40;99.90;;;;;;5115099;28;20747;-72
2023/12/24 03:46:07;;;;;;;40.10;7.78;;;10.40;99.90;;;;;;5115183;28;20031;-72
2023/12/24 03:48:33;;;;;;;33.20;8.55;;;10.40;99.90;;;;;;5114233;28;20024;-72
2023/12/24 03:50:59;;;;;;;38.85;9.55;;;10.40;99.90;;;;;;5115120;28;20050;-72
2023/12/24 03:53:24;;;;;;;30.02;7.88;;;10.40;99.90;;;;;;5113294;28;20027;-72
2023/12/24 03:55:50;;;;;;;33.97;7.60;;;10.40;99.90;;;;;;5114530;28;20023;-72
2023/12/24 03:58:15;;;;;;;34.83;8.25;;;10.40;99.90;;;;;;5113586;28;20027;-72
2023/12/24 04:00:41;;;;;;;35.22;8.65;;;10.40;99.90;;;;;;5113416;28;20073;-72
2023/12/24 04:03:07;;;;;;;33.67;7.57;;;10.50;99.90;;;;;;5114283;28;20031;-72
2023/12/24 04:05:32;;;;;;;29.48;7.57;;;10.50;99.90;;;;;;5113881;28;20107;-72
2023/12/24 04:07:58;;;;;;;33.10;7.75;;;10.50;99.90;;;;;;5113155;28;20065;-72
2023/12/24 04:10:23;;;;;;;38.15;8.68;;;10.50;99.90;;;;;;5106908;28;20027;-71
2023/12/24 04:12:49;;;;;;;31.85;8.13;;;10.50;99.90;;;;;;5114087;28;20027;-72
2023/12/24 04:15:15;;;;;;;35.42;7.85;;;10.50;99.90;;;;;;5114875;28;20020;-71
2023/12/24 04:17:40;;;;;;;31.63;7.82;;;10.50;99.90;;;;;;5113928;28;20073;-71
2023/12/24 04:20:06;;;;;;;32.70;8.13;;;10.50;99.90;;;;;;5114835;28;20028;-72
2023/12/24 04:22:32;;;;;;;36.03;8.20;;;10.60;99.90;;;;;;5114425;28;20016;-72
2023/12/24 04:24:59;;;;;;;38.17;8.73;;;10.50;99.90;;;;;;5114367;28;20038;-71
2023/12/24 04:27:25;;;;;;;35.15;8.57;;;10.60;99.90;;;;;;5080799;28;20028;-72
2023/12/24 04:29:51;;;;;;;42.75;10.27;;;10.60;99.90;;;;;;5114380;28;20051;-72
2023/12/24 04:32:19;;;;;;;35.90;8.50;;;10.60;99.90;;;;;;5114388;28;20085;-72
2023/12/24 04:34:45;;;;;;;43.03;8.68;;;10.60;99.90;;;;;;5114498;28;20369;-72
2023/12/24 04:37:10;;;;;;;40.15;9.13;;;10.60;99.90;;;;;;5109252;28;20024;-72
2023/12/24 04:39:36;;;;;;;55.10;10.30;;;10.60;99.90;;;;;;5114618;28;20019;-72
2023/12/24 04:42:02;;;;;;;36.78;8.88;;;10.60;99.90;;;;;;5114494;28;20031;-71
2023/12/24 04:44:28;;;;;;;38.63;8.43;;;10.70;99.90;;;;;;5114178;28;20032;-72
2023/12/24 04:46:53;;;;;;;35.78;8.75;;;10.70;99.90;;;;;;5113662;28;20022;-72
2023/12/24 04:49:19;;;;;;;44.40;8.95;;;10.70;99.90;;;;;;5114212;28;20054;-71
2023/12/24 04:51:45;;;;;;;29.67;7.97;;;10.70;99.90;;;;;;5114162;28;20127;-72
2023/12/24 04:54:11;;;;;;;44.75;9.07;;;10.70;99.90;;;;;;5112639;28;20041;-72
2023/12/24 04:56:37;;;;;;;37.08;8.55;;;10.70;99.90;;;;;;5113562;28;20150;-72
2023/12/24 04:59:02;;;;;;;38.28;8.82;;;10.80;99.90;;;;;;5114003;28;20376;-72
2023/12/24 05:01:28;;;;;;;42.42;8.57;;;10.80;99.90;;;;;;5113435;28;20035;-72
2023/12/24 05:03:54;;;;;;;42.90;9.32;;;10.80;99.90;;;;;;5113597;28;20031;-72
2023/12/24 05:06:21;;;;;;;48.70;8.18;;;10.80;99.90;;;;;;5095782;28;20442;-72
2023/12/24 05:08:46;;;;;;;35.50;7.80;;;10.80;99.90;;;;;;5095682;28;20023;-72
2023/12/24 05:11:12;;;;;;;40.58;8.13;;;10.90;99.90;;;;;;5109049;28;20031;-72
2023/12/24 05:13:37;;;;;;;44.10;10.10;;;10.90;99.90;;;;;;5113822;28;20093;-71
2023/12/24 05:16:04;;;;;;;42.65;8.40;;;10.90;99.90;;;;;;5113895;28;20023;-72
2023/12/24 05:18:32;;;;;;;38.33;9.05;;;10.90;99.90;;;;;;5113677;28;20123;-71
2023/12/24 05:20:57;;;;;;;40.47;7.97;;;10.90;99.90;;;;;;5113499;28;20511;-72
2023/12/24 05:23:25;;;;;;;35.90;7.78;;;10.90;99.90;;;;;;5113676;28;20019;-71
2023/12/24 05:25:50;;;;;;;39.08;8.38;;;10.90;99.90;;;;;;5113424;28;20054;-72
2023/12/24 05:28:21;;;;;;;38.55;7.95;;;11.00;99.90;;;;;;5113694;28;20028;-72
2023/12/24 05:30:48;;;;;;;51.50;9.15;;;11.00;99.90;;;;;;5106576;28;20069;-73
2023/12/24 05:33:14;;;;;;;37.92;9.52;;;11.00;99.90;;;;;;5109479;28;20058;-72
2023/12/24 05:35:40;;;;;;;40.28;8.95;;;11.00;99.90;;;;;;5113453;28;20036;-72
2023/12/24 05:38:06;;;;;;;38.50;8.80;;;11.00;99.90;;;;;;5108314;28;20064;-72
2023/12/24 05:40:32;;;;;;;40.95;8.35;;;11.00;99.90;;;;;;5094529;28;20028;-72
2023/12/24 05:42:58;;;;;;;42.00;9.70;;;11.00;99.90;;;;;;5093640;28;20362;-71
2023/12/24 05:45:24;;;;;;;43.40;9.23;;;11.10;99.90;;;;;;5111048;28;20028;-72
2023/12/24 05:47:49;;;;;;;43.40;8.57;;;11.00;99.90;;;;;;5110008;28;20020;-72
2023/12/24 05:50:15;;;;;;;37.85;9.55;;;11.00;99.90;;;;;;5112339;28;20538;-71
2023/12/24 05:52:41;;;;;;;35.22;8.63;;;11.10;99.90;;;;;;5111535;28;20020;-72
2023/12/24 05:55:08;;;;;;;39.58;8.90;;;11.10;99.90;;;;;;5111027;28;20800;-72
2023/12/24 05:57:37;;;;;;;44.85;9.13;;;11.10;99.90;;;;;;5108821;28;20517;-72
2023/12/24 06:00:05;;;;;;;48.67;9.23;;;11.10;99.90;;;;;;5109222;28;20043;-72
2023/12/24 06:02:30;;;;;;;42.08;8.63;;;11.10;99.90;;;;;;5108441;28;20368;-72
2023/12/24 06:04:56;;;;;;;47.03;8.40;;;11.20;99.90;;;;;;5110953;28;20380;-71
2023/12/24 06:07:21;;;;;;;39.35;8.85;;;11.20;99.90;;;;;;5107985;28;20077;-71
2023/12/24 06:09:47;;;;;;;42.72;9.02;;;11.20;99.90;;;;;;5107252;28;20035;-72
2023/12/24 06:12:12;;;;;;;44.17;9.30;;;11.20;99.90;;;;;;5112622;28;20401;-71
2023/12/24 06:14:38;;;;;;;37.22;8.93;;;11.20;99.90;;;;;;5112285;28;20503;-71
2023/12/24 06:17:04;;;;;;;43.15;8.20;;;11.30;99.90;;;;;;5112556;28;20423;-72
2023/12/24 06:19:29;;;;;;;45.78;9.27;;;11.30;99.90;;;;;;5112873;28;20469;-72
2023/12/24 06:21:55;;;;;;;43.92;8.30;;;11.30;99.90;;;;;;5112416;28;20032;-72
2023/12/24 06:24:31;;;;;;;40.22;8.70;;;11.30;99.90;;;;;;5111991;28;20517;-72
2023/12/24 06:26:58;;;;;;;41.70;8.75;;;11.30;99.90;;;;;;5111920;28;20035;-72
2023/12/24 06:29:23;;;;;;;47.60;8.57;;;11.30;99.90;;;;;;5111844;28;20031;-72
2023/12/24 06:31:49;;;;;;;37.25;9.00;;;11.30;99.90;;;;;;5116760;28;20040;-72
2023/12/24 06:34:15;;;;;;;36.33;7.78;;;11.30;99.90;;;;;;5116623;28;20020;-72
2023/12/24 06:36:40;;;;;;;42.15;8.90;;;11.30;99.90;;;;;;5112691;28;20028;-72
2023/12/24 06:39:06;;;;;;;41.95;8.48;;;11.30;99.90;;;;;;5110747;28;20024;-72
2023/12/24 06:41:31;;;;;;;42.22;7.85;;;11.30;99.90;;;;;;5115667;28;20022;-71
2023/12/24 06:43:57;;;;;;;43.70;8.63;;;11.30;99.90;;;;;;5115251;28;20166;-71
2023/12/24 06:46:24;;;;;;;39.15;7.22;;;11.30;99.90;;;;;;5114130;28;20371;-71
2023/12/24 06:48:51;;;;;;;36.72;7.65;;;11.30;99.90;;;;;;5115630;28;20024;-72
2023/12/24 06:51:16;;;;;;;35.55;7.68;;;11.30;99.90;;;;;;5116272;28;20065;-71
2023/12/24 06:53:42;;;;;;;38.03;7.22;;;11.30;99.90;;;;;;5115680;28;20020;-71
2023/12/24 06:56:07;;;;;;;37.92;7.53;;;11.30;99.90;;;;;;5115699;28;20036;-72
2023/12/24 06:58:33;;;;;;;32.90;7.50;;;11.40;99.90;;;;;;5114337;28;20023;-72
2023/12/24 07:00:59;;;;;;;38.50;6.93;;;11.40;99.90;;;;;;5115459;28;20495;-71
2023/12/24 07:03:24;;;;;;;39.75;7.60;;;11.40;99.90;;;;;;5113554;28;20027;-72
2023/12/24 07:05:50;;;;;;;36.42;6.90;;;11.40;99.90;;;;;;5115462;28;20461;-72
2023/12/24 07:08:15;;;;;;;38.88;6.93;;;11.40;99.90;;;;;;5115962;28;20456;-72
2023/12/24 07:10:41;;;;;;;34.20;7.10;;;11.40;99.90;;;;;;5116033;28;20031;-72
2023/12/24 07:13:07;;;;;;;36.13;7.20;;;11.40;99.90;;;;;;5114651;28;20012;-72
2023/12/24 07:15:37;;;;;;;33.97;7.72;;;11.50;99.90;;;;;;5115915;28;20437;-71
2023/12/24 07:18:02;;;;;;;35.00;7.15;;;11.50;99.90;;;;;;5113759;28;20034;-72
2023/12/24 07:20:28;;;;;;;35.03;7.20;;;11.50;99.90;;;;;;5115497;28;20019;-72
2023/12/24 07:22:53;;;;;;;38.72;7.13;;;11.50;99.90;;;;;;5115495;28;20019;-72
2023/12/24 07:25:19;;;;;;;32.45;6.55;;;11.50;99.90;;;;;;5115844;28;20069;-71
2023/12/24 07:27:44;;;;;;;35.60;6.80;;;11.50;99.90;;;;;;5110750;28;20019;-72
2023/12/24 07:30:11;;;;;;;36.35;7.82;;;11.50;99.90;;;;;;5111927;28;20035;-71
2023/12/24 07:32:36;;;;;;;42.25;6.65;;;11.50;99.90;;;;;;5102229;28;20036;-71
2023/12/24 07:35:02;;;;;;;36.95;7.38;;;11.50;99.90;;;;;;5094784;28;20027;-71
2023/12/24 07:37:27;;;;;;;35.53;6.93;;;11.50;99.90;;;;;;5095723;28;20429;-72
2023/12/24 07:39:53;;;;;;;36.63;6.55;;;11.50;99.90;;;;;;5096046;28;20028;-71
2023/12/24 07:42:18;;;;;;;38.25;7.45;;;11.50;99.90;;;;;;5113803;28;20031;-72
2023/12/24 07:44:44;;;;;;;39.45;6.80;;;11.50;99.90;;;;;;5102803;28;20114;-71
2023/12/24 07:47:10;;;;;;;34.80;6.53;;;11.60;99.90;;;;;;5076773;28;20073;-72
2023/12/24 07:49:35;;;;;;;36.72;7.40;;;11.60;99.90;;;;;;5095413;28;20051;-72
2023/12/24 07:52:01;;;;;;;34.58;6.55;;;11.60;99.90;;;;;;5095357;28;20044;-72
2023/12/24 07:54:26;;;;;;;35.13;6.47;;;11.60;99.90;;;;;;5095336;28;20032;-72
2023/12/24 07:56:52;;;;;;;34.17;6.45;;;11.60;99.90;;;;;;5095325;28;20028;-72
2023/12/24 07:59:17;;;;;;;32.05;7.55;;;11.60;99.90;;;;;;5096471;28;20545;-72
2023/12/24 08:01:43;;;;;;;35.17;6.45;;;11.60;99.90;;;;;;5115347;28;20449;-72
2023/12/24 08:04:09;;;;;;;31.75;8.35;;;11.60;99.90;;;;;;5095468;28;20035;-71
2023/12/24 08:06:35;;;;;;;34.90;7.10;;;11.60;99.90;;;;;;5094983;28;20056;-71
2023/12/24 08:09:01;;;;;;;34.53;7.78;;;11.60;99.90;;;;;;5095154;28;20020;-71
2023/12/24 08:11:27;;;;;;;29.45;6.65;;;11.60;99.90;;;;;;5102188;28;20079;-71
2023/12/24 08:13:52;;;;;;;33.28;7.22;;;11.60;99.90;;;;;;5115660;28;20463;-71
2023/12/24 08:16:18;;;;;;;30.23;6.18;;;11.60;99.90;;;;;;5115005;28;20027;-70
2023/12/24 08:18:43;;;;;;;37.65;6.70;;;11.60;99.90;;;;;;5115121;28;20051;-71
2023/12/24 08:21:10;;;;;;;29.02;6.43;;;11.60;99.90;;;;;;5115258;28;20116;-71
2023/12/24 08:23:39;;;;;;;29.95;6.20;;;11.70;99.90;;;;;;5114841;28;20023;-70
2023/12/24 08:26:05;;;;;;;40.42;6.60;;;11.70;99.90;;;;;;5115242;28;20050;-71
2023/12/24 08:28:31;;;;;;;37.50;7.05;;;11.70;99.90;;;;;;5113423;28;20121;-71
2023/12/24 08:30:57;;;;;;;25.15;5.65;;;11.70;99.90;;;;;;5114466;28;20047;-71
2023/12/24 08:33:22;;;;;;;34.22;6.93;;;11.70;99.90;;;;;;5114543;28;20103;-71
2023/12/24 08:35:48;;;;;;;29.20;6.13;;;11.80;99.90;;;;;;5114681;28;20389;-71
2023/12/24 08:38:13;;;;;;;32.65;6.50;;;11.80;99.90;;;;;;5115089;28;20023;-71
2023/12/24 08:40:39;;;;;;;37.28;6.15;;;11.80;99.90;;;;;;5114664;28;20110;-72
2023/12/24 08:43:05;;;;;;;35.80;7.00;;;11.80;99.90;;;;;;5094034;28;20024;-70
2023/12/24 08:45:30;;;;;;;39.65;7.75;;;11.80;99.90;;;;;;5093898;28;20020;-72
2023/12/24 08:47:56;;;;;;;35.45;7.35;;;11.80;99.90;;;;;;5094302;28;20062;-71
2023/12/24 08:50:22;;;;;;;36.25;7.10;;;11.90;99.90;;;;;;5093888;28;20036;-70
2023/12/24 08:52:48;;;;;;;30.35;6.95;;;11.90;99.90;;;;;;5093239;28;20035;-72
2023/12/24 08:55:15;;;;;;;34.55;7.47;;;11.90;99.90;;;;;;5093828;28;20028;-71
2023/12/24 08:57:41;;;;;;;39.10;7.22;;;11.90;99.90;;;;;;5104060;28;20032;-71
2023/12/24 09:00:11;;;;;;;36.30;7.63;;;12.00;99.90;;;;;;5113901;28;20048;-71
2023/12/24 09:02:39;;;;;;;35.33;6.97;;;11.90;99.90;;;;;;5114382;28;20039;-72
2023/12/24 09:05:07;;;;;;;35.22;6.55;;;12.00;99.90;;;;;;5113777;28;20028;-70
2023/12/24 09:07:34;;;;;;;35.38;6.60;;;12.00;99.90;;;;;;5095101;28;20386;-71
2023/12/24 09:09:59;;;;;;;29.98;5.47;;;12.00;99.90;;;;;;5093857;28;20517;-71
2023/12/24 09:12:25;;;;;;;36.85;7.13;;;12.00;99.90;;;;;;5107251;28;20137;-71
2023/12/24 09:14:50;;;;;;;31.35;7.03;;;12.00;99.90;;;;;;5113662;28;20057;-71
2023/12/24 09:17:16;;;;;;;33.47;6.13;;;12.10;99.90;;;;;;5114158;28;20051;-71
2023/12/24 09:19:42;;;;;;;35.50;6.47;;;12.10;99.90;;;;;;5113963;28;20024;-72
2023/12/24 09:22:07;;;;;;;33.47;7.05;;;12.10;99.90;;;;;;5113545;28;20080;-72
2023/12/24 09:24:33;;;;;;;32.10;6.38;;;12.10;99.90;;;;;;5095849;28;20027;-71
2023/12/24 09:26:58;;;;;;;32.80;7.20;;;12.10;99.90;;;;;;5109888;28;20024;-71
2023/12/24 09:29:24;;;;;;;30.13;6.40;;;12.20;99.90;;;;;;5095179;28;20047;-72
2023/12/24 09:31:50;;;;;;;34.90;6.95;;;12.20;99.90;;;;;;5112967;28;20100;-72
2023/12/24 09:34:18;;;;;;;29.17;6.78;;;12.20;99.90;;;;;;5113485;28;20024;-71
2023/12/24 09:36:44;;;;;;;33.78;6.18;;;12.10;99.90;;;;;;5113209;28;20042;-72
2023/12/24 09:39:10;;;;;;;32.15;6.47;;;12.10;99.90;;;;;;5113718;28;20024;-72
2023/12/24 09:41:39;;;;;;;31.15;5.60;;;12.10;99.90;;;;;;5113391;28;20035;-72
2023/12/24 09:44:08;;;;;;;30.60;5.85;;;12.10;99.90;;;;;;5094208;28;20024;-72
2023/12/24 09:46:34;;;;;;;35.72;6.57;;;12.00;99.90;;;;;;5113594;28;20067;-72
2023/12/24 09:49:00;;;;;;;35.63;7.25;;;12.00;99.90;;;;;;5113308;28;20468;-72
2023/12/24 09:51:26;;;;;;;35.05;7.10;;;12.00;99.90;;;;;;5113234;28;20162;-72
2023/12/24 09:53:54;;;;;;;40.63;7.35;;;12.00;99.90;;;;;;5113161;28;20031;-72
2023/12/24 09:56:19;;;;;;;36.22;7.15;;;12.00;99.90;;;;;;5112883;28;20477;-72
2023/12/24 09:58:48;;;;;;;37.45;6.80;;;12.00;99.90;;;;;;5113538;28;20036;-72
2023/12/24 10:01:13;;;;;;;38.78;7.80;;;12.00;99.90;;;;;;5111556;28;20051;-72
2023/12/24 10:03:39;;;;;;;32.83;6.57;;;12.00;99.90;;;;;;5092642;28;20024;-72
2023/12/24 10:06:07;;;;;;;36.33;7.10;;;12.00;99.90;;;;;;5091908;28;20423;-72
2023/12/24 10:08:33;;;;;;;34.33;6.82;;;11.90;99.90;;;;;;5092268;28;20022;-73
2023/12/24 10:11:23;;;;;;;35.55;7.22;;;12.00;99.90;;;;;;5112208;28;20043;-72
2023/12/24 10:13:58;;;;;;;35.00;7.55;;;11.90;99.90;;;;;;5112686;28;20084;-72
2023/12/24 10:16:24;;;;;;;47.90;8.32;;;11.90;99.90;;;;;;5112959;28;20028;-72
2023/12/24 10:18:50;;;;;;;39.92;7.70;;;11.80;99.90;;;;;;5098270;28;20028;-70
2023/12/24 10:21:16;;;;;;;41.50;8.07;;;11.70;99.90;;;;;;5112501;28;20077;-70
2023/12/24 10:23:41;;;;;;;42.22;8.05;;;11.80;99.90;;;;;;5112769;28;20077;-70
2023/12/24 10:26:11;;;;;;;42.08;8.38;;;11.70;99.90;;;;;;5112533;28;20023;-72
2023/12/24 10:28:48;;;;;;;45.22;9.63;;;11.70;99.90;;;;;;5112824;28;20156;-70
2023/12/24 10:31:14;;;;;;;47.88;9.60;;;11.70;99.90;;;;;;5101452;28;20170;-70
2023/12/24 10:33:40;;;;;;;46.60;8.90;;;11.60;99.90;;;;;;5111097;28;20127;-70
2023/12/24 10:36:07;;;;;;;50.20;10.40;;;11.60;99.90;;;;;;5112219;28;20077;-70
2023/12/24 10:38:34;;;;;;;42.85;9.05;;;11.50;99.90;;;;;;5112607;28;20034;-70
2023/12/24 10:41:00;;;;;;;49.95;9.70;;;11.50;99.90;;;;;;5112324;28;20045;-70
2023/12/24 10:43:26;;;;;;;47.08;10.98;;;11.50;99.90;;;;;;5105274;28;20086;-70
2023/12/24 10:45:51;;;;;;;50.83;9.35;;;11.50;99.90;;;;;;5109982;28;20023;-70
2023/12/24 10:48:17;;;;;;;40.50;9.15;;;11.50;99.90;;;;;;5112753;28;20039;-70
2023/12/24 10:50:46;;;;;;;54.25;10.70;;;11.50;99.90;;;;;;5111951;28;20047;-70
2023/12/24 10:53:13;;;;;;;62.60;11.18;;;11.50;99.90;;;;;;5112657;28;20084;-70
2023/12/24 10:55:41;;;;;;;50.60;9.50;;;11.50;99.90;;;;;;5112572;28;20035;-70
2023/12/24 10:58:48;;;;;;;56.75;10.55;;;11.50;99.90;;;;;;5112583;28;20102;-70
2023/12/24 11:01:15;;;;;;;50.75;10.23;;;11.50;99.90;;;;;;5110743;28;20047;-70
2023/12/24 11:03:48;;;;;;;49.38;10.30;;;11.50;99.90;;;;;;5112666;28;20518;-70
2023/12/24 11:06:35;;;;;;;53.60;11.45;;;11.50;99.90;;;;;;5112346;28;20032;-70
2023/12/24 11:09:03;;;;;;;53.13;10.70;;;11.60;99.90;;;;;;5112054;28;20028;-71
2023/12/24 11:11:52;;;;;;;54.45;11.43;;;11.60;99.90;;;;;;5112182;28;20119;-71
2023/12/24 11:14:45;;;;;;;57.85;10.50;;;11.60;99.90;;;;;;5112307;28;20107;-71
2023/12/24 11:17:49;;;;;;;55.10;11.15;;;11.60;99.90;;;;;;5113522;28;20456;-71
2023/12/24 11:20:27;;;;;;;54.97;10.07;;;11.70;99.90;;;;;;5082301;28;20043;-71
2023/12/24 11:23:05;;;;;;;47.40;8.68;;;11.70;99.90;;;;;;5116259;28;20376;-71
2023/12/24 11:25:40;;;;;;;49.67;9.45;;;11.80;99.90;;;;;;5116078;28;20480;-71
2023/12/24 11:28:09;;;;;;;49.25;10.05;;;11.80;99.90;;;;;;5115965;28;20028;-71
2023/12/24 11:30:50;;;;;;;42.35;9.48;;;11.80;99.90;;;;;;5116174;28;20047;-71
2023/12/24 11:33:28;;;;;;;49.28;11.38;;;11.80;99.90;;;;;;5115835;28;20028;-71
2023/12/24 11:35:55;;;;;;;51.70;10.25;;;11.80;99.90;;;;;;5115884;28;20032;-71
2023/12/24 11:38:35;;;;;;;37.80;9.07;;;11.80;99.90;;;;;;5114434;28;20035;-71
2023/12/24 11:41:14;;;;;;;47.03;8.45;;;11.80;99.90;;;;;;5115858;28;20123;-71
2023/12/24 11:43:45;;;;;;;50.38;10.27;;;11.80;99.90;;;;;;5115021;28;20020;-71
2023/12/24 11:46:10;;;;;;;51.40;10.38;;;11.80;99.90;;;;;;5115230;28;20430;-72
2023/12/24 11:48:36;;;;;;;50.83;9.50;;;11.80;99.90;;;;;;5115843;28;20024;-72
2023/12/24 11:51:09;;;;;;;56.45;9.80;;;11.90;99.90;;;;;;5115471;28;20040;-71
2023/12/24 11:53:36;;;;;;;46.63;10.45;;;11.90;99.90;;;;;;5097366;28;20026;-70
2023/12/24 11:56:07;;;;;;;45.92;9.20;;;11.90;99.90;;;;;;5115393;28;20064;-71
2023/12/24 11:58:33;;;;;;;51.08;9.20;;;11.90;99.90;;;;;;5115542;28;20362;-70
2023/12/24 12:01:00;;;;;;;40.05;9.00;;;11.90;99.90;;;;;;5110728;28;20537;-71
2023/12/24 12:03:26;;;;;;;51.80;10.02;;;11.90;99.90;;;;;;5115394;28;20036;-71
2023/12/24 12:05:51;;;;;;;55.03;9.93;;;11.90;99.90;;;;;;5115263;28;20380;-71
2023/12/24 12:08:17;;;;;;;49.92;9.90;;;11.90;99.90;;;;;;5115343;28;20098;-71
2023/12/24 12:10:42;;;;;;;52.80;10.35;;;11.90;99.90;;;;;;5115025;28;20039;-71
2023/12/24 12:13:08;;;;;;;49.88;10.23;;;11.90;99.90;;;;;;5115319;28;20047;-71
2023/12/24 12:15:34;;;;;;;46.83;10.40;;;11.90;99.90;;;;;;5114562;28;20031;-71
2023/12/24 12:18:00;;;;;;;43.92;9.38;;;11.90;99.90;;;;;;5113473;28;20027;-71
2023/12/24 12:20:25;;;;;;;50.05;10.43;;;12.00;99.90;;;;;;5115040;28;20407;-71
2023/12/24 12:22:51;;;;;;;51.78;10.48;;;11.90;99.90;;;;;;5115129;28;20031;-71
2023/12/24 12:25:17;;;;;;;51.17;11.00;;;11.90;99.90;;;;;;5114329;28;20020;-71
2023/12/24 12:27:42;;;;;;;50.17;10.60;;;11.90;99.90;;;;;;5112773;28;20055;-71
2023/12/24 12:30:08;;;;;;;55.15;9.93;;;11.90;99.90;;;;;;5115041;28;20039;-71
2023/12/24 12:32:37;;;;;;;47.50;9.85;;;11.80;99.90;;;;;;5114748;28;20024;-71
2023/12/24 12:35:03;;;;;;;52.05;11.18;;;11.80;99.90;;;;;;5113007;28;20134;-71